sensor_id;sensor_type;location;lat;lon;timestamp;P1;durP1;ratioP1;P2;durP2;ratioP2
23474;SDS011;11910;52.086;21.066;2023-07-28T00:02:40;9.77;;;7.55;;
23474;SDS011;11910;52.086;21.066;2023-07-28T00:05:06;10.70;;;7.13;;
23474;SDS011;11910;52.086;21.066;2023-07-28T00:07:32;9.32;;;6.72;;
23474;SDS011;11910;52.086;21.066;2023-07-28T00:10:00;10.15;;;7.18;;
23474;SDS011;11910;52.086;21.066;2023-07-28T00:12:26;11.00;;;6.80;;
23474;SDS011;11910;52.086;21.066;2023-07-28T00:14:51;10.70;;;7.00;;
23474;SDS011;11910;52.086;21.066;2023-07-28T00:17:17;10.65;;;6.50;;
23474;SDS011;11910;52.086;21.066;2023-07-28T00:19:43;9.63;;;6.30;;
23474;SDS011;11910;52.086;21.066;2023-07-28T00:22:08;9.20;;;6.65;;
23474;SDS011;11910;52.086;21.066;2023-07-28T00:24:34;10.40;;;7.28;;
23474;SDS011;11910;52.086;21.066;2023-07-28T00:27:00;8.93;;;6.65;;
23474;SDS011;11910;52.086;21.066;2023-07-28T00:29:25;9.27;;;6.45;;
23474;SDS011;11910;52.086;21.066;2023-07-28T00:31:51;10.55;;;6.22;;
23474;SDS011;11910;52.086;21.066;2023-07-28T00:34:18;9.05;;;6.35;;
23474;SDS011;11910;52.086;21.066;2023-07-28T00:36:43;9.25;;;5.90;;
23474;SDS011;11910;52.086;21.066;2023-07-28T00:39:09;7.28;;;5.88;;
23474;SDS011;11910;52.086;21.066;2023-07-28T00:41:35;8.38;;;6.05;;
23474;SDS011;11910;52.086;21.066;2023-07-28T00:44:03;7.53;;;5.75;;
23474;SDS011;11910;52.086;21.066;2023-07-28T00:46:31;9.10;;;5.93;;
23474;SDS011;11910;52.086;21.066;2023-07-28T00:48:57;9.18;;;6.05;;
23474;SDS011;11910;52.086;21.066;2023-07-28T00:51:22;8.38;;;5.35;;
23474;SDS011;11910;52.086;21.066;2023-07-28T00:53:48;6.82;;;5.63;;
23474;SDS011;11910;52.086;21.066;2023-07-28T00:56:14;7.60;;;5.57;;
23474;SDS011;11910;52.086;21.066;2023-07-28T00:58:41;8.98;;;4.72;;
23474;SDS011;11910;52.086;21.066;2023-07-28T01:01:09;8.55;;;5.53;;
23474;SDS011;11910;52.086;21.066;2023-07-28T01:03:35;5.45;;;4.90;;
23474;SDS011;11910;52.086;21.066;2023-07-28T01:06:10;8.55;;;5.50;;
23474;SDS011;11910;52.086;21.066;2023-07-28T01:11:31;7.63;;;5.55;;
23474;SDS011;11910;52.086;21.066;2023-07-28T01:13:57;9.27;;;6.03;;
23474;SDS011;11910;52.086;21.066;2023-07-28T01:16:22;8.77;;;5.82;;
23474;SDS011;11910;52.086;21.066;2023-07-28T01:18:49;7.05;;;5.90;;
23474;SDS011;11910;52.086;21.066;2023-07-28T01:21:22;9.52;;;6.35;;
23474;SDS011;11910;52.086;21.066;2023-07-28T01:26:36;8.18;;;6.10;;
23474;SDS011;11910;52.086;21.066;2023-07-28T01:29:03;7.10;;;5.93;;
23474;SDS011;11910;52.086;21.066;2023-07-28T01:31:29;7.85;;;5.90;;
23474;SDS011;11910;52.086;21.066;2023-07-28T01:33:55;7.38;;;5.97;;
23474;SDS011;11910;52.086;21.066;2023-07-28T01:36:21;7.80;;;5.50;;
23474;SDS011;11910;52.086;21.066;2023-07-28T01:38:47;7.95;;;5.70;;
23474;SDS011;11910;52.086;21.066;2023-07-28T01:41:12;7.50;;;5.78;;
23474;SDS011;11910;52.086;21.066;2023-07-28T01:43:50;9.45;;;6.10;;
23474;SDS011;11910;52.086;21.066;2023-07-28T01:46:17;8.68;;;5.90;;
23474;SDS011;11910;52.086;21.066;2023-07-28T01:48:42;8.85;;;6.00;;
23474;SDS011;11910;52.086;21.066;2023-07-28T01:51:08;7.18;;;6.35;;
23474;SDS011;11910;52.086;21.066;2023-07-28T01:53:33;7.57;;;5.65;;
23474;SDS011;11910;52.086;21.066;2023-07-28T01:55:59;7.00;;;6.22;;
23474;SDS011;11910;52.086;21.066;2023-07-28T01:58:25;6.72;;;5.80;;
23474;SDS011;11910;52.086;21.066;2023-07-28T02:00:51;9.32;;;6.00;;
23474;SDS011;11910;52.086;21.066;2023-07-28T02:03:17;9.00;;;6.43;;
23474;SDS011;11910;52.086;21.066;2023-07-28T02:05:42;7.70;;;5.80;;
23474;SDS011;11910;52.086;21.066;2023-07-28T02:08:09;6.97;;;5.65;;
23474;SDS011;11910;52.086;21.066;2023-07-28T02:10:35;9.18;;;5.68;;
23474;SDS011;11910;52.086;21.066;2023-07-28T02:13:00;8.23;;;6.05;;
23474;SDS011;11910;52.086;21.066;2023-07-28T02:15:26;7.60;;;5.45;;
23474;SDS011;11910;52.086;21.066;2023-07-28T02:17:52;6.35;;;5.70;;
23474;SDS011;11910;52.086;21.066;2023-07-28T02:20:17;7.70;;;5.40;;
23474;SDS011;11910;52.086;21.066;2023-07-28T02:22:43;8.40;;;6.00;;
23474;SDS011;11910;52.086;21.066;2023-07-28T02:25:09;7.82;;;6.28;;
23474;SDS011;11910;52.086;21.066;2023-07-28T02:27:35;7.72;;;6.00;;
23474;SDS011;11910;52.086;21.066;2023-07-28T02:30:05;8.43;;;5.93;;
23474;SDS011;11910;52.086;21.066;2023-07-28T02:32:31;8.93;;;6.25;;
23474;SDS011;11910;52.086;21.066;2023-07-28T02:34:57;8.05;;;5.50;;
23474;SDS011;11910;52.086;21.066;2023-07-28T02:37:23;8.02;;;5.43;;
23474;SDS011;11910;52.086;21.066;2023-07-28T02:39:49;8.50;;;5.63;;
23474;SDS011;11910;52.086;21.066;2023-07-28T02:42:15;6.50;;;5.90;;
23474;SDS011;11910;52.086;21.066;2023-07-28T02:44:40;7.15;;;5.90;;
23474;SDS011;11910;52.086;21.066;2023-07-28T02:47:06;6.28;;;5.25;;
23474;SDS011;11910;52.086;21.066;2023-07-28T02:49:32;7.93;;;5.85;;
23474;SDS011;11910;52.086;21.066;2023-07-28T02:51:57;8.80;;;5.50;;
23474;SDS011;11910;52.086;21.066;2023-07-28T02:54:23;8.18;;;5.75;;
23474;SDS011;11910;52.086;21.066;2023-07-28T02:56:50;7.40;;;6.03;;
23474;SDS011;11910;52.086;21.066;2023-07-28T02:59:16;9.05;;;6.22;;
23474;SDS011;11910;52.086;21.066;2023-07-28T03:01:45;7.18;;;6.47;;
23474;SDS011;11910;52.086;21.066;2023-07-28T03:04:11;9.00;;;5.97;;
23474;SDS011;11910;52.086;21.066;2023-07-28T03:06:37;7.97;;;6.75;;
23474;SDS011;11910;52.086;21.066;2023-07-28T03:09:02;9.85;;;6.60;;
23474;SDS011;11910;52.086;21.066;2023-07-28T03:11:28;10.38;;;6.88;;
23474;SDS011;11910;52.086;21.066;2023-07-28T03:14:01;6.60;;;5.80;;
23474;SDS011;11910;52.086;21.066;2023-07-28T03:16:27;8.63;;;6.00;;
23474;SDS011;11910;52.086;21.066;2023-07-28T03:18:53;7.10;;;6.40;;
23474;SDS011;11910;52.086;21.066;2023-07-28T03:21:18;7.93;;;6.72;;
23474;SDS011;11910;52.086;21.066;2023-07-28T03:23:44;7.43;;;5.95;;
23474;SDS011;11910;52.086;21.066;2023-07-28T03:26:10;8.95;;;7.03;;
23474;SDS011;11910;52.086;21.066;2023-07-28T03:28:35;7.30;;;6.60;;
23474;SDS011;11910;52.086;21.066;2023-07-28T03:31:01;7.25;;;6.13;;
23474;SDS011;11910;52.086;21.066;2023-07-28T03:33:26;10.00;;;6.25;;
23474;SDS011;11910;52.086;21.066;2023-07-28T03:35:52;8.43;;;5.85;;
23474;SDS011;11910;52.086;21.066;2023-07-28T03:38:18;8.85;;;6.90;;
23474;SDS011;11910;52.086;21.066;2023-07-28T03:40:44;7.10;;;6.40;;
23474;SDS011;11910;52.086;21.066;2023-07-28T03:43:09;7.35;;;6.57;;
23474;SDS011;11910;52.086;21.066;2023-07-28T03:45:35;9.50;;;6.85;;
23474;SDS011;11910;52.086;21.066;2023-07-28T03:48:01;9.85;;;6.68;;
23474;SDS011;11910;52.086;21.066;2023-07-28T03:50:27;7.50;;;6.32;;
23474;SDS011;11910;52.086;21.066;2023-07-28T03:52:53;8.85;;;6.55;;
23474;SDS011;11910;52.086;21.066;2023-07-28T03:55:18;10.98;;;6.10;;
23474;SDS011;11910;52.086;21.066;2023-07-28T03:57:44;9.07;;;6.80;;
23474;SDS011;11910;52.086;21.066;2023-07-28T04:00:10;8.23;;;6.28;;
23474;SDS011;11910;52.086;21.066;2023-07-28T04:02:36;9.13;;;5.90;;
23474;SDS011;11910;52.086;21.066;2023-07-28T04:05:01;7.50;;;6.28;;
23474;SDS011;11910;52.086;21.066;2023-07-28T04:07:27;11.98;;;6.68;;
23474;SDS011;11910;52.086;21.066;2023-07-28T04:09:52;9.07;;;6.55;;
23474;SDS011;11910;52.086;21.066;2023-07-28T04:12:18;9.25;;;6.78;;
23474;SDS011;11910;52.086;21.066;2023-07-28T04:14:44;9.85;;;6.30;;
23474;SDS011;11910;52.086;21.066;2023-07-28T04:17:09;11.48;;;6.68;;
23474;SDS011;11910;52.086;21.066;2023-07-28T04:19:36;7.50;;;6.03;;
23474;SDS011;11910;52.086;21.066;2023-07-28T04:22:02;7.10;;;5.78;;
23474;SDS011;11910;52.086;21.066;2023-07-28T04:24:29;8.52;;;6.25;;
23474;SDS011;11910;52.086;21.066;2023-07-28T04:26:54;7.28;;;6.35;;
23474;SDS011;11910;52.086;21.066;2023-07-28T04:29:20;9.60;;;5.93;;
23474;SDS011;11910;52.086;21.066;2023-07-28T04:31:46;7.85;;;5.78;;
23474;SDS011;11910;52.086;21.066;2023-07-28T04:34:11;6.72;;;5.53;;
23474;SDS011;11910;52.086;21.066;2023-07-28T04:36:37;8.27;;;6.30;;
23474;SDS011;11910;52.086;21.066;2023-07-28T04:39:02;8.40;;;6.40;;
23474;SDS011;11910;52.086;21.066;2023-07-28T04:41:28;10.23;;;5.95;;
23474;SDS011;11910;52.086;21.066;2023-07-28T04:43:54;6.43;;;5.70;;
23474;SDS011;11910;52.086;21.066;2023-07-28T04:46:19;9.43;;;5.68;;
23474;SDS011;11910;52.086;21.066;2023-07-28T04:48:45;10.70;;;5.80;;
23474;SDS011;11910;52.086;21.066;2023-07-28T04:51:11;8.15;;;6.13;;
23474;SDS011;11910;52.086;21.066;2023-07-28T04:53:37;8.45;;;6.18;;
23474;SDS011;11910;52.086;21.066;2023-07-28T04:56:02;7.85;;;5.80;;
23474;SDS011;11910;52.086;21.066;2023-07-28T04:58:28;7.50;;;5.63;;
23474;SDS011;11910;52.086;21.066;2023-07-28T05:00:54;9.07;;;5.65;;
23474;SDS011;11910;52.086;21.066;2023-07-28T05:03:20;8.13;;;5.50;;
23474;SDS011;11910;52.086;21.066;2023-07-28T05:05:45;6.88;;;5.10;;
23474;SDS011;11910;52.086;21.066;2023-07-28T05:08:11;6.47;;;5.32;;
23474;SDS011;11910;52.086;21.066;2023-07-28T05:10:37;8.60;;;5.43;;
23474;SDS011;11910;52.086;21.066;2023-07-28T05:13:02;7.22;;;5.05;;
23474;SDS011;11910;52.086;21.066;2023-07-28T05:15:29;8.82;;;4.95;;
23474;SDS011;11910;52.086;21.066;2023-07-28T05:17:55;6.38;;;5.25;;
23474;SDS011;11910;52.086;21.066;2023-07-28T05:20:21;9.70;;;5.40;;
23474;SDS011;11910;52.086;21.066;2023-07-28T05:22:46;6.70;;;4.75;;
23474;SDS011;11910;52.086;21.066;2023-07-28T05:25:12;5.68;;;4.53;;
23474;SDS011;11910;52.086;21.066;2023-07-28T05:27:37;6.00;;;4.22;;
23474;SDS011;11910;52.086;21.066;2023-07-28T05:30:04;7.88;;;4.53;;
23474;SDS011;11910;52.086;21.066;2023-07-28T05:32:31;7.32;;;4.38;;
23474;SDS011;11910;52.086;21.066;2023-07-28T05:34:57;5.93;;;4.53;;
23474;SDS011;11910;52.086;21.066;2023-07-28T05:37:23;9.45;;;4.47;;
23474;SDS011;11910;52.086;21.066;2023-07-28T05:39:48;6.82;;;4.45;;
23474;SDS011;11910;52.086;21.066;2023-07-28T05:42:14;6.07;;;4.45;;
23474;SDS011;11910;52.086;21.066;2023-07-28T05:44:40;5.90;;;4.47;;
23474;SDS011;11910;52.086;21.066;2023-07-28T05:47:05;6.00;;;4.28;;
23474;SDS011;11910;52.086;21.066;2023-07-28T05:49:31;6.15;;;4.22;;
23474;SDS011;11910;52.086;21.066;2023-07-28T05:51:57;7.35;;;4.10;;
23474;SDS011;11910;52.086;21.066;2023-07-28T05:54:22;6.43;;;4.28;;
23474;SDS011;11910;52.086;21.066;2023-07-28T05:56:48;5.43;;;4.15;;
23474;SDS011;11910;52.086;21.066;2023-07-28T05:59:14;7.63;;;4.28;;
23474;SDS011;11910;52.086;21.066;2023-07-28T06:01:40;7.85;;;4.05;;
23474;SDS011;11910;52.086;21.066;2023-07-28T06:04:06;7.10;;;4.07;;
23474;SDS011;11910;52.086;21.066;2023-07-28T06:06:31;6.88;;;3.80;;
23474;SDS011;11910;52.086;21.066;2023-07-28T06:08:57;5.80;;;3.90;;
23474;SDS011;11910;52.086;21.066;2023-07-28T06:11:22;8.40;;;4.10;;
23474;SDS011;11910;52.086;21.066;2023-07-28T06:13:48;7.07;;;4.00;;
23474;SDS011;11910;52.086;21.066;2023-07-28T06:16:14;6.40;;;3.92;;
23474;SDS011;11910;52.086;21.066;2023-07-28T06:18:40;7.68;;;3.90;;
23474;SDS011;11910;52.086;21.066;2023-07-28T06:21:06;5.20;;;4.00;;
23474;SDS011;11910;52.086;21.066;2023-07-28T06:23:32;7.10;;;3.97;;
23474;SDS011;11910;52.086;21.066;2023-07-28T06:25:57;5.45;;;3.85;;
23474;SDS011;11910;52.086;21.066;2023-07-28T06:28:23;5.65;;;3.70;;
23474;SDS011;11910;52.086;21.066;2023-07-28T06:30:55;4.50;;;3.83;;
23474;SDS011;11910;52.086;21.066;2023-07-28T06:33:23;6.60;;;4.00;;
23474;SDS011;11910;52.086;21.066;2023-07-28T06:35:49;7.97;;;3.80;;
23474;SDS011;11910;52.086;21.066;2023-07-28T06:38:15;6.28;;;4.13;;
23474;SDS011;11910;52.086;21.066;2023-07-28T06:40:43;5.85;;;3.78;;
23474;SDS011;11910;52.086;21.066;2023-07-28T06:43:09;6.90;;;3.67;;
23474;SDS011;11910;52.086;21.066;2023-07-28T06:45:35;4.78;;;3.80;;
23474;SDS011;11910;52.086;21.066;2023-07-28T06:48:01;6.68;;;4.28;;
23474;SDS011;11910;52.086;21.066;2023-07-28T06:50:26;4.78;;;3.70;;
23474;SDS011;11910;52.086;21.066;2023-07-28T06:52:52;7.18;;;4.03;;
23474;SDS011;11910;52.086;21.066;2023-07-28T06:55:18;6.85;;;4.40;;
23474;SDS011;11910;52.086;21.066;2023-07-28T06:57:51;5.88;;;4.00;;
23474;SDS011;11910;52.086;21.066;2023-07-28T07:00:17;7.50;;;3.90;;
23474;SDS011;11910;52.086;21.066;2023-07-28T07:02:43;7.72;;;4.10;;
23474;SDS011;11910;52.086;21.066;2023-07-28T07:05:10;8.20;;;4.38;;
23474;SDS011;11910;52.086;21.066;2023-07-28T07:07:41;10.32;;;4.70;;
23474;SDS011;11910;52.086;21.066;2023-07-28T07:10:06;9.23;;;4.95;;
23474;SDS011;11910;52.086;21.066;2023-07-28T07:12:33;10.48;;;5.30;;
23474;SDS011;11910;52.086;21.066;2023-07-28T07:14:58;7.82;;;5.18;;
23474;SDS011;11910;52.086;21.066;2023-07-28T07:17:24;6.43;;;4.90;;
23474;SDS011;11910;52.086;21.066;2023-07-28T07:19:50;8.50;;;5.00;;
23474;SDS011;11910;52.086;21.066;2023-07-28T07:22:15;6.65;;;5.25;;
23474;SDS011;11910;52.086;21.066;2023-07-28T07:24:41;6.60;;;4.93;;
23474;SDS011;11910;52.086;21.066;2023-07-28T07:27:07;11.90;;;5.22;;
23474;SDS011;11910;52.086;21.066;2023-07-28T07:29:35;6.45;;;5.20;;
23474;SDS011;11910;52.086;21.066;2023-07-28T07:32:03;7.93;;;5.60;;
23474;SDS011;11910;52.086;21.066;2023-07-28T07:34:29;6.35;;;5.30;;
23474;SDS011;11910;52.086;21.066;2023-07-28T07:36:54;6.97;;;6.05;;
23474;SDS011;11910;52.086;21.066;2023-07-28T07:39:22;11.38;;;5.93;;
23474;SDS011;11910;52.086;21.066;2023-07-28T07:41:47;6.38;;;5.05;;
23474;SDS011;11910;52.086;21.066;2023-07-28T07:44:13;8.00;;;5.85;;
23474;SDS011;11910;52.086;21.066;2023-07-28T07:46:38;8.90;;;6.07;;
23474;SDS011;11910;52.086;21.066;2023-07-28T07:49:04;7.43;;;6.13;;
23474;SDS011;11910;52.086;21.066;2023-07-28T07:51:33;7.93;;;6.05;;
23474;SDS011;11910;52.086;21.066;2023-07-28T07:53:59;8.50;;;6.05;;
23474;SDS011;11910;52.086;21.066;2023-07-28T07:56:26;8.35;;;6.28;;
23474;SDS011;11910;52.086;21.066;2023-07-28T07:58:52;11.40;;;6.13;;
23474;SDS011;11910;52.086;21.066;2023-07-28T08:01:18;7.30;;;6.50;;
23474;SDS011;11910;52.086;21.066;2023-07-28T08:03:43;8.98;;;6.85;;
23474;SDS011;11910;52.086;21.066;2023-07-28T08:06:12;7.38;;;6.40;;
23474;SDS011;11910;52.086;21.066;2023-07-28T08:08:38;7.80;;;6.35;;
23474;SDS011;11910;52.086;21.066;2023-07-28T08:11:04;8.60;;;6.57;;
23474;SDS011;11910;52.086;21.066;2023-07-28T08:13:33;8.63;;;6.68;;
23474;SDS011;11910;52.086;21.066;2023-07-28T08:15:59;7.88;;;6.78;;
23474;SDS011;11910;52.086;21.066;2023-07-28T08:18:24;7.35;;;5.93;;
23474;SDS011;11910;52.086;21.066;2023-07-28T08:20:50;6.25;;;5.13;;
23474;SDS011;11910;52.086;21.066;2023-07-28T08:23:15;8.18;;;6.15;;
23474;SDS011;11910;52.086;21.066;2023-07-28T08:25:41;8.57;;;5.90;;
23474;SDS011;11910;52.086;21.066;2023-07-28T08:28:07;7.82;;;6.47;;
23474;SDS011;11910;52.086;21.066;2023-07-28T08:30:32;8.38;;;6.53;;
23474;SDS011;11910;52.086;21.066;2023-07-28T08:32:58;6.72;;;5.95;;
23474;SDS011;11910;52.086;21.066;2023-07-28T08:35:24;6.72;;;5.90;;
23474;SDS011;11910;52.086;21.066;2023-07-28T08:37:50;10.00;;;6.30;;
23474;SDS011;11910;52.086;21.066;2023-07-28T08:40:16;8.77;;;5.97;;
23474;SDS011;11910;52.086;21.066;2023-07-28T08:42:41;8.73;;;6.10;;
23474;SDS011;11910;52.086;21.066;2023-07-28T08:45:07;6.63;;;5.47;;
23474;SDS011;11910;52.086;21.066;2023-07-28T08:47:34;7.53;;;6.10;;
23474;SDS011;11910;52.086;21.066;2023-07-28T08:50:00;9.23;;;6.03;;
23474;SDS011;11910;52.086;21.066;2023-07-28T08:52:26;6.35;;;5.57;;
23474;SDS011;11910;52.086;21.066;2023-07-28T08:54:54;6.45;;;5.43;;
23474;SDS011;11910;52.086;21.066;2023-07-28T08:57:20;7.05;;;5.90;;
23474;SDS011;11910;52.086;21.066;2023-07-28T08:59:46;5.93;;;5.10;;
23474;SDS011;11910;52.086;21.066;2023-07-28T09:02:16;7.30;;;6.07;;
23474;SDS011;11910;52.086;21.066;2023-07-28T09:04:43;8.50;;;6.03;;
23474;SDS011;11910;52.086;21.066;2023-07-28T09:07:10;7.53;;;5.65;;
23474;SDS011;11910;52.086;21.066;2023-07-28T09:09:35;5.95;;;5.35;;
23474;SDS011;11910;52.086;21.066;2023-07-28T09:12:05;7.32;;;5.30;;
23474;SDS011;11910;52.086;21.066;2023-07-28T09:14:34;6.90;;;5.45;;
23474;SDS011;11910;52.086;21.066;2023-07-28T09:17:10;5.90;;;5.30;;
23474;SDS011;11910;52.086;21.066;2023-07-28T09:19:54;7.25;;;5.70;;
23474;SDS011;11910;52.086;21.066;2023-07-28T09:22:21;6.13;;;5.43;;
23474;SDS011;11910;52.086;21.066;2023-07-28T09:24:47;10.20;;;5.80;;
23474;SDS011;11910;52.086;21.066;2023-07-28T09:27:20;7.55;;;5.18;;
23474;SDS011;11910;52.086;21.066;2023-07-28T09:29:50;6.05;;;5.45;;
23474;SDS011;11910;52.086;21.066;2023-07-28T09:32:25;7.35;;;5.05;;
23474;SDS011;11910;52.086;21.066;2023-07-28T09:35:09;8.18;;;5.20;;
23474;SDS011;11910;52.086;21.066;2023-07-28T09:38:09;7.05;;;5.38;;
23474;SDS011;11910;52.086;21.066;2023-07-28T09:42:53;6.28;;;5.10;;
23474;SDS011;11910;52.086;21.066;2023-07-28T09:45:20;7.40;;;5.22;;
23474;SDS011;11910;52.086;21.066;2023-07-28T09:47:47;9.15;;;5.60;;
23474;SDS011;11910;52.086;21.066;2023-07-28T09:50:15;8.20;;;5.40;;
23474;SDS011;11910;52.086;21.066;2023-07-28T09:52:46;5.97;;;5.38;;
23474;SDS011;11910;52.086;21.066;2023-07-28T09:55:14;6.38;;;5.07;;
23474;SDS011;11910;52.086;21.066;2023-07-28T09:57:51;6.03;;;5.15;;
23474;SDS011;11910;52.086;21.066;2023-07-28T10:00:18;7.22;;;5.50;;
23474;SDS011;11910;52.086;21.066;2023-07-28T10:02:45;9.65;;;5.60;;
23474;SDS011;11910;52.086;21.066;2023-07-28T10:05:12;7.07;;;5.60;;
23474;SDS011;11910;52.086;21.066;2023-07-28T10:07:40;6.95;;;5.13;;
23474;SDS011;11910;52.086;21.066;2023-07-28T10:10:07;7.20;;;5.43;;
23474;SDS011;11910;52.086;21.066;2023-07-28T10:12:42;9.07;;;5.50;;
23474;SDS011;11910;52.086;21.066;2023-07-28T10:15:12;7.15;;;5.63;;
23474;SDS011;11910;52.086;21.066;2023-07-28T10:17:41;7.95;;;5.80;;
23474;SDS011;11910;52.086;21.066;2023-07-28T10:23:01;7.20;;;5.45;;
23474;SDS011;11910;52.086;21.066;2023-07-28T10:25:37;7.55;;;5.75;;
23474;SDS011;11910;52.086;21.066;2023-07-28T10:28:04;6.85;;;5.50;;
23474;SDS011;11910;52.086;21.066;2023-07-28T10:30:34;9.52;;;5.78;;
23474;SDS011;11910;52.086;21.066;2023-07-28T10:33:02;6.95;;;5.28;;
23474;SDS011;11910;52.086;21.066;2023-07-28T10:35:28;7.05;;;4.90;;
23474;SDS011;11910;52.086;21.066;2023-07-28T10:37:56;9.35;;;5.38;;
23474;SDS011;11910;52.086;21.066;2023-07-28T10:40:29;7.85;;;5.40;;
23474;SDS011;11910;52.086;21.066;2023-07-28T10:42:59;9.85;;;5.45;;
23474;SDS011;11910;52.086;21.066;2023-07-28T10:45:27;8.05;;;5.40;;
23474;SDS011;11910;52.086;21.066;2023-07-28T10:47:56;6.50;;;5.28;;
23474;SDS011;11910;52.086;21.066;2023-07-28T10:50:26;7.28;;;5.35;;
23474;SDS011;11910;52.086;21.066;2023-07-28T10:52:53;7.07;;;5.40;;
23474;SDS011;11910;52.086;21.066;2023-07-28T10:55:25;8.50;;;5.05;;
23474;SDS011;11910;52.086;21.066;2023-07-28T10:57:52;12.77;;;5.07;;
23474;SDS011;11910;52.086;21.066;2023-07-28T11:00:20;12.27;;;4.95;;
23474;SDS011;11910;52.086;21.066;2023-07-28T11:02:53;7.75;;;5.18;;
23474;SDS011;11910;52.086;21.066;2023-07-28T11:05:29;8.30;;;5.00;;
23474;SDS011;11910;52.086;21.066;2023-07-28T11:07:56;6.18;;;4.43;;
23474;SDS011;11910;52.086;21.066;2023-07-28T11:10:29;11.23;;;4.80;;
23474;SDS011;11910;52.086;21.066;2023-07-28T11:12:57;5.15;;;4.65;;
23474;SDS011;11910;52.086;21.066;2023-07-28T11:15:27;9.03;;;5.07;;
23474;SDS011;11910;52.086;21.066;2023-07-28T11:17:52;6.43;;;5.10;;
23474;SDS011;11910;52.086;21.066;2023-07-28T11:20:22;5.07;;;4.55;;
23474;SDS011;11910;52.086;21.066;2023-07-28T11:22:53;6.65;;;4.38;;
23474;SDS011;11910;52.086;21.066;2023-07-28T11:25:24;7.57;;;4.75;;
23474;SDS011;11910;52.086;21.066;2023-07-28T11:27:53;5.20;;;4.57;;
23474;SDS011;11910;52.086;21.066;2023-07-28T11:30:24;5.72;;;4.60;;
23474;SDS011;11910;52.086;21.066;2023-07-28T11:32:59;5.20;;;4.70;;
23474;SDS011;11910;52.086;21.066;2023-07-28T11:35:26;6.05;;;4.70;;
23474;SDS011;11910;52.086;21.066;2023-07-28T11:37:52;6.00;;;4.45;;
23474;SDS011;11910;52.086;21.066;2023-07-28T11:40:19;6.63;;;4.72;;
23474;SDS011;11910;52.086;21.066;2023-07-28T11:42:53;7.72;;;4.70;;
23474;SDS011;11910;52.086;21.066;2023-07-28T11:45:20;6.43;;;4.30;;
23474;SDS011;11910;52.086;21.066;2023-07-28T11:48:00;5.10;;;4.60;;
23474;SDS011;11910;52.086;21.066;2023-07-28T11:52:59;6.03;;;4.85;;
23474;SDS011;11910;52.086;21.066;2023-07-28T11:55:35;5.10;;;4.05;;
23474;SDS011;11910;52.086;21.066;2023-07-28T11:58:02;10.07;;;4.40;;
23474;SDS011;11910;52.086;21.066;2023-07-28T12:00:33;5.82;;;4.40;;
23474;SDS011;11910;52.086;21.066;2023-07-28T12:03:05;5.20;;;4.18;;
23474;SDS011;11910;52.086;21.066;2023-07-28T12:05:34;5.88;;;3.90;;
23474;SDS011;11910;52.086;21.066;2023-07-28T12:08:01;6.03;;;3.22;;
23474;SDS011;11910;52.086;21.066;2023-07-28T12:10:30;5.88;;;2.97;;
23474;SDS011;11910;52.086;21.066;2023-07-28T12:12:57;5.35;;;2.80;;
23474;SDS011;11910;52.086;21.066;2023-07-28T12:15:28;3.78;;;2.90;;
23474;SDS011;11910;52.086;21.066;2023-07-28T12:18:04;3.50;;;2.85;;
23474;SDS011;11910;52.086;21.066;2023-07-28T12:20:33;4.85;;;3.35;;
23474;SDS011;11910;52.086;21.066;2023-07-28T12:23:00;3.38;;;3.05;;
23474;SDS011;11910;52.086;21.066;2023-07-28T12:25:26;4.57;;;3.28;;
23474;SDS011;11910;52.086;21.066;2023-07-28T12:27:52;4.57;;;2.92;;
23474;SDS011;11910;52.086;21.066;2023-07-28T12:30:17;3.45;;;2.17;;
23474;SDS011;11910;52.086;21.066;2023-07-28T12:32:43;2.25;;;2.05;;
23474;SDS011;11910;52.086;21.066;2023-07-28T12:35:09;3.38;;;2.30;;
23474;SDS011;11910;52.086;21.066;2023-07-28T12:37:35;6.47;;;2.25;;
23474;SDS011;11910;52.086;21.066;2023-07-28T12:40:00;2.65;;;2.10;;
23474;SDS011;11910;52.086;21.066;2023-07-28T12:42:26;2.83;;;1.92;;
23474;SDS011;11910;52.086;21.066;2023-07-28T12:44:52;4.47;;;1.80;;
23474;SDS011;11910;52.086;21.066;2023-07-28T12:47:17;1.92;;;1.73;;
23474;SDS011;11910;52.086;21.066;2023-07-28T12:49:43;1.88;;;1.67;;
23474;SDS011;11910;52.086;21.066;2023-07-28T12:52:09;2.00;;;1.80;;
23474;SDS011;11910;52.086;21.066;2023-07-28T12:54:37;4.28;;;1.90;;
23474;SDS011;11910;52.086;21.066;2023-07-28T12:57:04;3.65;;;1.70;;
23474;SDS011;11910;52.086;21.066;2023-07-28T12:59:32;3.40;;;1.63;;
23474;SDS011;11910;52.086;21.066;2023-07-28T13:01:58;5.70;;;1.90;;
23474;SDS011;11910;52.086;21.066;2023-07-28T13:04:24;2.55;;;1.67;;
23474;SDS011;11910;52.086;21.066;2023-07-28T13:06:49;1.85;;;1.35;;
23474;SDS011;11910;52.086;21.066;2023-07-28T13:09:15;2.05;;;1.50;;
23474;SDS011;11910;52.086;21.066;2023-07-28T13:11:40;1.75;;;1.40;;
23474;SDS011;11910;52.086;21.066;2023-07-28T13:14:06;2.20;;;1.40;;
23474;SDS011;11910;52.086;21.066;2023-07-28T13:16:32;2.30;;;1.50;;
23474;SDS011;11910;52.086;21.066;2023-07-28T13:18:57;2.53;;;1.50;;
23474;SDS011;11910;52.086;21.066;2023-07-28T13:21:24;2.45;;;1.35;;
23474;SDS011;11910;52.086;21.066;2023-07-28T13:23:50;1.35;;;1.20;;
23474;SDS011;11910;52.086;21.066;2023-07-28T13:26:16;2.20;;;1.23;;
23474;SDS011;11910;52.086;21.066;2023-07-28T13:28:41;1.85;;;1.45;;
23474;SDS011;11910;52.086;21.066;2023-07-28T13:31:12;3.63;;;1.60;;
23474;SDS011;11910;52.086;21.066;2023-07-28T13:33:41;2.03;;;1.60;;
23474;SDS011;11910;52.086;21.066;2023-07-28T13:36:07;2.35;;;1.48;;
23474;SDS011;11910;52.086;21.066;2023-07-28T13:38:33;3.20;;;1.40;;
23474;SDS011;11910;52.086;21.066;2023-07-28T13:40:59;1.98;;;1.60;;
23474;SDS011;11910;52.086;21.066;2023-07-28T13:43:24;3.05;;;1.70;;
23474;SDS011;11910;52.086;21.066;2023-07-28T13:45:50;3.20;;;1.50;;
23474;SDS011;11910;52.086;21.066;2023-07-28T13:48:16;1.73;;;1.40;;
23474;SDS011;11910;52.086;21.066;2023-07-28T13:50:41;2.30;;;1.55;;
23474;SDS011;11910;52.086;21.066;2023-07-28T13:53:07;1.42;;;1.33;;
23474;SDS011;11910;52.086;21.066;2023-07-28T13:55:33;1.65;;;1.30;;
23474;SDS011;11910;52.086;21.066;2023-07-28T13:57:59;2.03;;;1.50;;
23474;SDS011;11910;52.086;21.066;2023-07-28T14:00:25;1.67;;;1.50;;
23474;SDS011;11910;52.086;21.066;2023-07-28T14:02:50;2.90;;;1.55;;
23474;SDS011;11910;52.086;21.066;2023-07-28T14:05:16;2.85;;;1.40;;
23474;SDS011;11910;52.086;21.066;2023-07-28T14:07:42;1.95;;;1.50;;
23474;SDS011;11910;52.086;21.066;2023-07-28T14:10:07;1.58;;;1.45;;
23474;SDS011;11910;52.086;21.066;2023-07-28T14:12:33;1.75;;;1.60;;
23474;SDS011;11910;52.086;21.066;2023-07-28T14:14:59;2.55;;;1.60;;
23474;SDS011;11910;52.086;21.066;2023-07-28T14:17:24;3.58;;;1.70;;
23474;SDS011;11910;52.086;21.066;2023-07-28T14:19:50;2.63;;;1.60;;
23474;SDS011;11910;52.086;21.066;2023-07-28T14:22:15;2.10;;;1.75;;
23474;SDS011;11910;52.086;21.066;2023-07-28T14:24:41;2.20;;;1.50;;
23474;SDS011;11910;52.086;21.066;2023-07-28T14:27:06;3.72;;;1.40;;
23474;SDS011;11910;52.086;21.066;2023-07-28T14:29:39;2.50;;;1.35;;
23474;SDS011;11910;52.086;21.066;2023-07-28T14:32:05;2.33;;;1.50;;
23474;SDS011;11910;52.086;21.066;2023-07-28T14:34:31;2.22;;;1.48;;
23474;SDS011;11910;52.086;21.066;2023-07-28T14:36:56;2.75;;;1.52;;
23474;SDS011;11910;52.086;21.066;2023-07-28T14:39:22;2.25;;;1.42;;
23474;SDS011;11910;52.086;21.066;2023-07-28T14:41:48;2.92;;;1.40;;
23474;SDS011;11910;52.086;21.066;2023-07-28T14:44:16;2.42;;;1.20;;
23474;SDS011;11910;52.086;21.066;2023-07-28T14:46:51;1.67;;;1.23;;